Time,TemperatureF,DewpointF,PressureIn,WindDirection,WindDirectionDegrees,WindSpeedMPH,WindSpeedGustMPH,Humidity,HourlyPrecipIn,Conditions,Clouds,dailyrainin,SoftwareType,DateUTC
2013-04-27 00:02:00,58.3,52.0,29.93,ESE,120,4.0,9.0,80,0.00,,,0.00,weatherlink.com 1.10,2013-04-26 22:02:00,
2013-04-27 00:17:00,57.9,52.0,29.93,SE,131,3.0,12.0,81,0.00,,,0.00,weatherlink.com 1.10,2013-04-26 22:17:00,
2013-04-27 00:32:00,57.6,52.0,29.92,East,91,4.0,11.0,81,0.00,,,0.00,weatherlink.com 1.10,2013-04-26 22:32:00,
2013-04-27 00:48:00,57.6,52.0,29.91,ESE,105,3.0,11.0,80,0.00,,,0.00,weatherlink.com 1.10,2013-04-26 22:48:00,
2013-04-27 01:03:00,57.9,51.0,29.90,East,79,7.0,14.0,79,0.00,,,0.00,weatherlink.com 1.10,2013-04-26 23:03:00,
2013-04-27 01:18:00,58.2,51.0,29.89,ENE,77,5.0,16.0,78,0.00,,,0.00,weatherlink.com 1.10,2013-04-26 23:18:00,
2013-04-27 01:33:00,58.2,51.0,29.89,East,80,4.0,12.0,77,0.00,,,0.00,weatherlink.com 1.10,2013-04-26 23:33:00,
2013-04-27 01:48:00,58.1,51.0,29.89,East,79,4.0,8.0,77,0.00,,,0.00,weatherlink.com 1.10,2013-04-26 23:48:00,
2013-04-27 02:18:00,58.7,51.0,29.87,ENE,67,7.0,9.0,75,0.00,,,0.00,weatherlink.com 1.10,2013-04-27 00:18:00,
2013-04-27 02:33:00,58.4,51.0,29.87,East,82,6.0,10.0,76,0.00,,,0.00,weatherlink.com 1.10,2013-04-27 00:33:00,
2013-04-27 02:48:00,58.6,51.0,29.87,SE,131,2.0,10.0,77,0.00,,,0.00,weatherlink.com 1.10,2013-04-27 00:48:00,
2013-04-27 03:03:00,58.0,51.0,29.87,East,89,4.0,12.0,78,0.00,,,0.00,weatherlink.com 1.10,2013-04-27 01:03:00,
2013-04-27 03:18:00,57.5,51.0,29.87,East,84,5.0,9.0,80,0.00,,,0.00,weatherlink.com 1.10,2013-04-27 01:18:00,
2013-04-27 03:33:00,57.2,51.0,29.87,East,90,7.0,8.0,80,0.00,,,0.00,weatherlink.com 1.10,2013-04-27 01:33:00,
2013-04-27 03:48:00,57.1,51.0,29.86,ENE,68,5.0,11.0,80,0.00,,,0.00,weatherlink.com 1.10,2013-04-27 01:48:00,
2013-04-27 04:03:00,57.0,51.0,29.85,ESE,103,8.0,10.0,80,0.00,,,0.00,weatherlink.com 1.10,2013-04-27 02:03:00,
2013-04-27 04:18:00,57.2,51.0,29.85,East,79,5.0,11.0,79,0.00,,,0.00,weatherlink.com 1.10,2013-04-27 02:18:00,
2013-04-27 04:33:00,57.8,51.0,29.84,East,81,3.0,11.0,79,0.00,,,0.00,weatherlink.com 1.10,2013-04-27 02:33:00,
2013-04-27 04:48:00,57.8,52.0,29.83,ESE,103,5.0,13.0,81,0.00,,,0.00,weatherlink.com 1.10,2013-04-27 02:48:00,
2013-04-27 05:03:00,57.8,53.0,29.82,East,96,5.0,12.0,84,0.00,,,0.00,weatherlink.com 1.10,2013-04-27 03:03:00,
2013-04-27 05:18:00,57.8,53.0,29.82,East,81,8.0,10.0,84,0.00,,,0.00,weatherlink.com 1.10,2013-04-27 03:18:00,
2013-04-27 05:33:00,57.8,53.0,29.82,ESE,107,4.0,10.0,84,0.00,,,0.00,weatherlink.com 1.10,2013-04-27 03:33:00,
2013-04-27 05:48:00,57.9,53.0,29.82,ESE,112,6.0,11.0,84,0.00,,,0.00,weatherlink.com 1.10,2013-04-27 03:48:00,
2013-04-27 06:03:00,58.0,53.0,29.82,ESE,105,6.0,14.0,83,0.00,,,0.00,weatherlink.com 1.10,2013-04-27 04:03:00,
2013-04-27 06:18:00,57.9,53.0,29.82,ESE,111,10.0,10.0,84,0.00,,,0.00,weatherlink.com 1.10,2013-04-27 04:18:00,
2013-04-27 06:33:00,57.7,53.0,29.82,SE,134,4.0,10.0,84,0.00,,,0.00,weatherlink.com 1.10,2013-04-27 04:33:00,
2013-04-27 06:48:00,57.6,53.0,29.83,ESE,120,5.0,12.0,84,0.00,,,0.00,weatherlink.com 1.10,2013-04-27 04:48:00,
2013-04-27 07:03:00,57.7,53.0,29.82,SE,127,6.0,11.0,83,0.00,,,0.00,weatherlink.com 1.10,2013-04-27 05:03:00,
2013-04-27 07:18:00,57.7,53.0,29.82,ESE,105,3.0,11.0,84,0.00,,,0.00,weatherlink.com 1.10,2013-04-27 05:18:00,
2013-04-27 07:33:00,58.0,53.0,29.82,East,84,8.0,10.0,84,0.00,,,0.00,weatherlink.com 1.10,2013-04-27 05:33:00,
2013-04-27 07:48:00,58.2,53.0,29.82,ESE,120,8.0,11.0,83,0.00,,,0.00,weatherlink.com 1.10,2013-04-27 05:48:00,
2013-04-27 08:03:00,58.3,53.0,29.82,SE,135,6.0,12.0,82,0.00,,,0.00,weatherlink.com 1.10,2013-04-27 06:03:00,
2013-04-27 08:18:00,58.6,53.0,29.82,East,100,4.0,8.0,82,0.00,,,0.00,weatherlink.com 1.10,2013-04-27 06:18:00,
2013-04-27 08:33:00,58.7,53.0,29.81,ESE,123,10.0,12.0,81,0.00,,,0.00,weatherlink.com 1.10,2013-04-27 06:33:00,
2013-04-27 08:48:00,58.7,53.0,29.82,SE,143,3.0,15.0,81,0.00,,,0.00,weatherlink.com 1.10,2013-04-27 06:48:00,
2013-04-27 09:03:00,58.8,53.0,29.81,SE,133,3.0,15.0,80,0.00,,,0.00,weatherlink.com 1.10,2013-04-27 07:03:00,
2013-04-27 09:19:00,58.9,52.0,29.80,ESE,105,6.0,13.0,79,0.00,,,0.00,weatherlink.com 1.10,2013-04-27 07:19:00,
2013-04-27 09:34:00,59.0,53.0,29.80,ESE,120,6.0,15.0,79,0.00,,,0.00,weatherlink.com 1.10,2013-04-27 07:34:00,
2013-04-27 09:49:00,59.3,52.0,29.79,SE,133,5.0,14.0,78,0.00,,,0.00,weatherlink.com 1.10,2013-04-27 07:49:00,
2013-04-27 10:04:00,59.0,53.0,29.80,SSE,155,16.0,25.0,80,0.00,,,0.00,weatherlink.com 1.10,2013-04-27 08:04:00,
2013-04-27 10:19:00,58.2,53.0,29.80,ESE,108,6.0,25.0,84,0.00,,,0.00,weatherlink.com 1.10,2013-04-27 08:19:00,
2013-04-27 10:34:00,57.9,54.0,29.80,SE,131,14.0,23.0,86,0.00,,,0.00,weatherlink.com 1.10,2013-04-27 08:34:00,
2013-04-27 10:49:00,57.9,54.0,29.80,SE,134,15.0,23.0,87,0.00,,,0.00,weatherlink.com 1.10,2013-04-27 08:49:00,
2013-04-27 11:04:00,57.2,54.0,29.81,ESE,118,8.0,23.0,89,0.00,,,0.00,weatherlink.com 1.10,2013-04-27 09:04:00,
2013-04-27 11:19:00,57.3,54.0,29.81,SE,146,8.0,22.0,88,0.00,,,0.00,weatherlink.com 1.10,2013-04-27 09:19:00,
2013-04-27 11:34:00,57.2,54.0,29.81,SE,139,20.0,29.0,88,0.00,,,0.00,weatherlink.com 1.10,2013-04-27 09:34:00,
2013-04-27 11:49:00,56.9,54.0,29.81,ESE,122,15.0,23.0,90,0.00,,,0.00,weatherlink.com 1.10,2013-04-27 09:49:00,
2013-04-27 12:04:00,56.8,54.0,29.81,SE,139,17.0,29.0,90,0.00,,,0.00,weatherlink.com 1.10,2013-04-27 10:04:00,
2013-04-27 12:19:00,56.2,54.0,29.81,ESE,119,12.0,28.0,91,0.00,,,0.00,weatherlink.com 1.10,2013-04-27 10:19:00,
2013-04-27 12:34:00,56.0,54.0,29.81,SE,135,8.0,26.0,92,0.00,,,0.00,weatherlink.com 1.10,2013-04-27 10:34:00,
2013-04-27 12:49:00,56.2,54.0,29.80,SE,134,7.0,26.0,92,0.00,,,0.00,weatherlink.com 1.10,2013-04-27 10:49:00,
2013-04-27 13:04:00,56.3,54.0,29.79,SSE,156,8.0,26.0,92,0.00,,,0.00,weatherlink.com 1.10,2013-04-27 11:04:00,
2013-04-27 13:19:00,56.2,54.0,29.79,SE,135,28.0,34.0,92,0.00,,,0.00,weatherlink.com 1.10,2013-04-27 11:19:00,
2013-04-27 13:34:00,56.2,54.0,29.79,ESE,117,19.0,27.0,92,0.00,,,0.00,weatherlink.com 1.10,2013-04-27 11:34:00,
2013-04-27 13:49:00,56.3,54.0,29.79,SE,134,19.0,24.0,92,0.00,,,0.00,weatherlink.com 1.10,2013-04-27 11:49:00,
2013-04-27 14:04:00,56.5,54.0,29.79,ESE,119,15.0,29.0,92,0.00,,,0.00,weatherlink.com 1.10,2013-04-27 12:04:00,
2013-04-27 14:19:00,56.3,54.0,29.80,East,100,8.0,21.0,93,0.00,,,0.00,weatherlink.com 1.10,2013-04-27 12:19:00,
2013-04-27 14:34:00,56.7,55.0,29.79,South,181,10.0,22.0,92,0.00,,,0.00,weatherlink.com 1.10,2013-04-27 12:34:00,
2013-04-27 14:49:00,56.8,55.0,29.79,SE,124,13.0,23.0,92,0.00,,,0.00,weatherlink.com 1.10,2013-04-27 12:49:00,
2013-04-27 15:04:00,57.0,55.0,29.78,SE,124,12.0,21.0,93,0.00,,,0.00,weatherlink.com 1.10,2013-04-27 13:04:00,
2013-04-27 15:19:00,56.8,55.0,29.78,SSE,165,6.0,28.0,93,0.01,,,0.01,weatherlink.com 1.10,2013-04-27 13:19:00,
2013-04-27 15:34:00,56.9,55.0,29.77,SSE,158,12.0,27.0,94,0.01,,,0.01,weatherlink.com 1.10,2013-04-27 13:34:00,
2013-04-27 15:49:00,56.9,55.0,29.77,SE,139,15.0,24.0,93,0.01,,,0.01,weatherlink.com 1.10,2013-04-27 13:49:00,
2013-04-27 16:04:00,56.5,55.0,29.77,ESE,110,16.0,24.0,93,0.01,,,0.01,weatherlink.com 1.10,2013-04-27 14:04:00,
2013-04-27 16:19:00,56.2,55.0,29.77,SSE,167,8.0,28.0,94,0.00,,,0.01,weatherlink.com 1.10,2013-04-27 14:19:00,
2013-04-27 16:34:00,56.3,55.0,29.76,ESE,113,11.0,19.0,95,0.00,,,0.01,weatherlink.com 1.10,2013-04-27 14:34:00,
2013-04-27 16:49:00,56.4,55.0,29.75,ESE,107,17.0,22.0,94,0.00,,,0.01,weatherlink.com 1.10,2013-04-27 14:49:00,
2013-04-27 17:04:00,56.1,55.0,29.76,East,99,14.0,25.0,95,0.01,,,0.02,weatherlink.com 1.10,2013-04-27 15:04:00,
2013-04-27 17:19:00,55.8,55.0,29.76,SSW,205,6.0,24.0,96,0.01,,,0.02,weatherlink.com 1.10,2013-04-27 15:19:00,
2013-04-27 17:34:00,55.7,55.0,29.76,SSE,162,13.0,28.0,96,0.02,,,0.02,weatherlink.com 1.10,2013-04-27 15:34:00,
2013-04-27 17:49:00,55.7,55.0,29.77,SSE,159,10.0,20.0,97,0.02,,,0.03,weatherlink.com 1.10,2013-04-27 15:49:00,
2013-04-27 18:05:00,55.6,55.0,29.76,ESE,105,10.0,17.0,97,0.02,,,0.03,weatherlink.com 1.10,2013-04-27 16:05:00,
2013-04-27 18:20:00,55.4,55.0,29.76,SSE,150,18.0,29.0,97,0.02,,,0.03,weatherlink.com 1.10,2013-04-27 16:20:00,
2013-04-27 18:35:00,55.5,55.0,29.77,East,99,10.0,25.0,97,0.02,,,0.04,weatherlink.com 1.10,2013-04-27 16:35:00,
2013-04-27 18:50:00,55.5,55.0,29.77,East,98,22.0,22.0,97,0.01,,,0.04,weatherlink.com 1.10,2013-04-27 16:50:00,
2013-04-27 19:05:00,55.6,55.0,29.77,SSE,152,14.0,25.0,97,0.02,,,0.05,weatherlink.com 1.10,2013-04-27 17:05:00,
2013-04-27 19:20:00,55.7,55.0,29.77,ESE,108,5.0,22.0,98,0.02,,,0.05,weatherlink.com 1.10,2013-04-27 17:20:00,
2013-04-27 19:35:00,55.7,55.0,29.77,East,94,15.0,17.0,98,0.01,,,0.05,weatherlink.com 1.10,2013-04-27 17:35:00,
2013-04-27 19:50:00,55.8,55.0,29.77,ESE,119,11.0,17.0,98,0.01,,,0.05,weatherlink.com 1.10,2013-04-27 17:50:00,
2013-04-27 20:05:00,55.9,55.0,29.78,ESE,114,12.0,23.0,98,0.00,,,0.05,weatherlink.com 1.10,2013-04-27 18:05:00,
2013-04-27 20:20:00,55.9,55.0,29.78,SSE,153,10.0,21.0,98,0.00,,,0.05,weatherlink.com 1.10,2013-04-27 18:20:00,
2013-04-27 20:35:00,56.0,56.0,29.79,SE,134,13.0,25.0,98,0.00,,,0.05,weatherlink.com 1.10,2013-04-27 18:35:00,
2013-04-27 20:50:00,56.0,56.0,29.80,SE,129,19.0,19.0,98,0.00,,,0.05,weatherlink.com 1.10,2013-04-27 18:50:00,
2013-04-27 21:05:00,56.0,56.0,29.80,SSE,150,6.0,24.0,98,0.00,,,0.05,weatherlink.com 1.10,2013-04-27 19:05:00,
2013-04-27 21:20:00,56.0,56.0,29.81,ESE,120,13.0,20.0,98,0.00,,,0.05,weatherlink.com 1.10,2013-04-27 19:20:00,
2013-04-27 21:35:00,56.1,56.0,29.81,East,85,3.0,19.0,98,0.00,,,0.05,weatherlink.com 1.10,2013-04-27 19:35:00,
2013-04-27 21:50:00,56.0,56.0,29.82,East,91,2.0,15.0,98,0.00,,,0.05,weatherlink.com 1.10,2013-04-27 19:50:00,
2013-04-27 22:05:00,55.9,55.0,29.82,SE,143,11.0,14.0,98,0.01,,,0.06,weatherlink.com 1.10,2013-04-27 20:05:00,
2013-04-27 22:20:00,55.9,55.0,29.82,SE,131,7.0,15.0,98,0.01,,,0.06,weatherlink.com 1.10,2013-04-27 20:20:00,
2013-04-27 22:35:00,55.8,55.0,29.83,SE,131,8.0,16.0,98,0.01,,,0.06,weatherlink.com 1.10,2013-04-27 20:35:00,
2013-04-27 22:50:00,55.7,55.0,29.83,SE,146,8.0,20.0,98,0.01,,,0.06,weatherlink.com 1.10,2013-04-27 20:50:00,
2013-04-27 23:05:00,55.8,55.0,29.83,SE,142,5.0,18.0,98,0.00,,,0.06,weatherlink.com 1.10,2013-04-27 21:05:00,
2013-04-27 23:20:00,55.7,55.0,29.84,SSE,162,7.0,17.0,98,0.00,,,0.06,weatherlink.com 1.10,2013-04-27 21:20:00,
2013-04-27 23:35:00,55.8,55.0,29.84,SSE,148,7.0,18.0,98,0.00,,,0.06,weatherlink.com 1.10,2013-04-27 21:35:00,
2013-04-27 23:50:00,55.7,55.0,29.84,South,177,6.0,19.0,98,0.00,,,0.06,weatherlink.com 1.10,2013-04-27 21:50:00,